Time;durP1;ratioP1;P1;durP2;ratioP2;P2;SDS_P1;SDS_P2;PMS_P1;PMS_P2;Temp;Humidity;BMP_temperature;BMP_pressure;BME280_temperature;BME280_humidity;BME280_pressure;Samples;Min_cycle;Max_cycle;Signal;HPM_P1;HPM_P2
2023/02/11 00:01:05;;;;;;;45.63;24.37;;;-3.10;99.90;;;;;;5024358;28;20040;-79
2023/02/11 00:03:31;;;;;;;48.80;25.13;;;-3.10;99.90;;;;;;5024796;28;20030;-78
2023/02/11 00:06:01;;;;;;;46.73;24.87;;;-3.10;99.90;;;;;;5025165;28;20079;-78
2023/02/11 00:08:27;;;;;;;42.50;23.07;;;-3.10;99.90;;;;;;5025461;28;20026;-78
2023/02/11 00:10:54;;;;;;;48.97;25.40;;;-3.20;99.90;;;;;;5025419;28;20067;-78
2023/02/11 00:13:20;;;;;;;48.30;25.73;;;-3.20;99.90;;;;;;5024405;28;20040;-78
2023/02/11 00:15:46;;;;;;;46.37;25.60;;;-3.30;99.90;;;;;;5024777;28;20056;-78
2023/02/11 00:18:11;;;;;;;46.07;24.43;;;-3.30;99.90;;;;;;5024977;28;20021;-78
2023/02/11 00:20:41;;;;;;;46.60;24.33;;;-3.30;99.90;;;;;;5024286;28;20078;-78
2023/02/11 00:23:07;;;;;;;47.30;25.53;;;-3.30;99.90;;;;;;5025136;28;20113;-78
2023/02/11 00:25:33;;;;;;;47.33;25.83;;;-3.40;99.90;;;;;;5024721;28;20040;-78
2023/02/11 00:27:58;;;;;;;41.70;23.80;;;-3.40;99.90;;;;;;5023694;28;20033;-78
2023/02/11 00:30:24;;;;;;;47.60;23.50;;;-3.40;99.90;;;;;;5024722;28;20111;-78
2023/02/11 00:32:49;;;;;;;49.57;24.90;;;-3.40;99.90;;;;;;5024239;28;20971;-78
2023/02/11 00:35:15;;;;;;;47.90;25.57;;;-3.40;99.90;;;;;;5025108;28;20509;-78
2023/02/11 00:37:41;;;;;;;55.53;27.17;;;-3.40;99.90;;;;;;5023045;28;20109;-78
2023/02/11 00:40:07;;;;;;;52.30;26.47;;;-3.50;99.90;;;;;;5023746;28;20057;-78
2023/02/11 00:42:34;;;;;;;53.90;27.90;;;-3.50;99.90;;;;;;5024640;28;20026;-78
2023/02/11 00:45:00;;;;;;;50.40;25.83;;;-3.50;99.90;;;;;;5024284;28;20029;-78
2023/02/11 00:47:26;;;;;;;53.87;26.23;;;-3.50;99.90;;;;;;5022036;28;20029;-79
2023/02/11 00:49:51;;;;;;;47.33;24.13;;;-3.50;99.90;;;;;;5024508;28;20122;-78
2023/02/11 00:52:17;;;;;;;53.90;26.37;;;-3.50;99.90;;;;;;5025310;28;20033;-78
2023/02/11 00:54:42;;;;;;;45.43;25.30;;;-3.50;99.90;;;;;;5028199;28;20065;-78
2023/02/11 00:57:08;;;;;;;53.77;25.70;;;-3.60;99.90;;;;;;5027381;28;20033;-78
2023/02/11 00:59:33;;;;;;;46.70;23.70;;;-3.60;99.90;;;;;;5029426;28;20045;-78
2023/02/11 01:01:59;;;;;;;46.70;23.53;;;-3.60;99.90;;;;;;5028184;28;20033;-78
2023/02/11 01:04:25;;;;;;;49.23;24.20;;;-3.60;99.90;;;;;;5028216;28;20087;-78
2023/02/11 01:06:50;;;;;;;44.43;23.43;;;-3.60;99.90;;;;;;5025535;28;20466;-78
2023/02/11 01:09:16;;;;;;;45.60;23.27;;;-3.60;99.90;;;;;;5023944;28;20707;-78
2023/02/11 01:11:42;;;;;;;44.77;24.53;;;-3.60;99.90;;;;;;5023545;28;20065;-78
2023/02/11 01:14:08;;;;;;;43.57;23.23;;;-3.70;99.90;;;;;;5022602;28;20041;-78
2023/02/11 01:16:33;;;;;;;50.43;25.73;;;-3.70;99.90;;;;;;5022852;28;20368;-78
2023/02/11 01:18:59;;;;;;;43.73;23.27;;;-3.70;99.90;;;;;;5023235;28;20379;-78
2023/02/11 01:21:24;;;;;;;47.90;24.00;;;-3.70;99.90;;;;;;5023197;28;20072;-78
2023/02/11 01:23:50;;;;;;;45.07;24.07;;;-3.70;99.90;;;;;;5021300;28;20498;-78
2023/02/11 01:26:18;;;;;;;44.90;23.23;;;-3.70;99.90;;;;;;5023700;28;20040;-78
2023/02/11 01:28:43;;;;;;;43.43;22.50;;;-3.70;99.90;;;;;;5023534;28;20033;-78
2023/02/11 01:31:09;;;;;;;43.23;22.57;;;-3.70;99.90;;;;;;5021283;28;20385;-78
2023/02/11 01:33:34;;;;;;;45.27;23.93;;;-3.70;99.90;;;;;;5023601;28;20167;-78
2023/02/11 01:36:04;;;;;;;43.17;24.27;;;-3.80;99.90;;;;;;5023822;28;20040;-78
2023/02/11 01:38:30;;;;;;;46.07;23.27;;;-3.80;99.90;;;;;;5023225;28;20035;-78
2023/02/11 01:41:05;;;;;;;44.33;24.00;;;-3.80;99.90;;;;;;5023796;28;20163;-78
2023/02/11 01:43:36;;;;;;;42.70;22.45;;;-3.80;99.90;;;;;;5023425;28;20029;-78
2023/02/11 01:46:20;;;;;;;44.07;22.83;;;-3.80;99.90;;;;;;5020657;28;20167;-78
2023/02/11 01:48:54;;;;;;;47.57;24.37;;;-3.80;99.90;;;;;;5023377;28;20503;-78
2023/02/11 01:51:40;;;;;;;48.00;24.33;;;-3.80;99.90;;;;;;5022138;28;20040;-78
2023/02/11 01:59:49;;;;;;;44.10;21.93;;;-3.80;99.90;;;;;;5022601;28;20040;-78
2023/02/11 02:02:18;;;;;;;45.40;22.83;;;-3.80;99.90;;;;;;5021265;28;20026;-78
2023/02/11 02:05:25;;;;;;;46.40;22.80;;;-3.90;99.90;;;;;;5022117;28;20490;-78
2023/02/11 02:08:03;;;;;;;44.80;23.13;;;-3.90;99.90;;;;;;5022929;28;20045;-78
2023/02/11 02:10:30;;;;;;;44.97;22.57;;;-3.90;99.90;;;;;;5021746;28;20053;-78
2023/02/11 02:12:57;;;;;;;42.60;22.03;;;-3.90;99.90;;;;;;5023155;28;21519;-78
2023/02/11 02:15:24;;;;;;;40.40;22.50;;;-3.90;99.90;;;;;;5021159;28;20065;-78
2023/02/11 02:17:58;;;;;;;45.90;22.90;;;-3.90;99.90;;;;;;5026654;28;20753;-78
2023/02/11 02:20:40;;;;;;;40.30;21.57;;;-3.90;99.90;;;;;;5029428;28;20021;-78
2023/02/11 02:23:26;;;;;;;38.70;20.83;;;-3.90;99.90;;;;;;5027811;28;20048;-78
2023/02/11 02:26:12;;;;;;;45.17;22.57;;;-3.80;99.90;;;;;;5029455;28;20049;-78
2023/02/11 02:29:18;;;;;;;39.40;22.10;;;-3.90;99.90;;;;;;5028855;28;20769;-78
2023/02/11 02:32:09;;;;;;;48.33;22.50;;;-3.90;99.90;;;;;;5029168;28;20029;-78
2023/02/11 02:34:40;;;;;;;40.67;21.50;;;-3.90;99.90;;;;;;5029671;28;20438;-78
2023/02/11 02:37:19;;;;;;;43.00;21.23;;;-3.90;99.90;;;;;;5027955;28;20075;-78
2023/02/11 02:39:47;;;;;;;39.30;20.73;;;-3.90;99.90;;;;;;5028793;28;20022;-78
2023/02/11 02:42:13;;;;;;;39.33;21.07;;;-3.90;99.90;;;;;;5029371;28;21511;-78
2023/02/11 02:44:39;;;;;;;42.13;20.60;;;-3.90;99.90;;;;;;5028373;28;21494;-78
2023/02/11 02:47:04;;;;;;;39.57;20.87;;;-3.90;99.90;;;;;;5029525;28;20032;-78
2023/02/11 02:49:30;;;;;;;43.27;22.13;;;-3.80;99.90;;;;;;5029002;28;20467;-78
2023/02/11 02:52:21;;;;;;;41.90;21.10;;;-3.90;99.90;;;;;;5027276;28;20033;-78
2023/02/11 02:55:21;;;;;;;39.30;20.10;;;-3.90;99.90;;;;;;5029717;28;20026;-78
2023/02/11 02:57:53;;;;;;;40.57;20.00;;;-3.90;99.90;;;;;;5029319;28;20040;-78
2023/02/11 03:00:29;;;;;;;40.10;20.20;;;-3.90;99.90;;;;;;5027117;28;20727;-78
2023/02/11 03:03:21;;;;;;;42.70;20.77;;;-3.90;99.90;;;;;;5028612;28;20033;-78
2023/02/11 03:06:15;;;;;;;36.00;19.03;;;-3.90;99.90;;;;;;5029485;28;20386;-78
2023/02/11 03:08:50;;;;;;;33.97;18.07;;;-3.90;99.90;;;;;;5027023;28;20565;-78
2023/02/11 03:11:17;;;;;;;;;;;-3.90;99.90;;;;;;5029349;28;20077;-78
2023/02/11 03:13:44;;;;;;;32.43;16.17;;;-3.80;99.90;;;;;;5027459;28;20385;-78
2023/02/11 03:16:25;;;;;;;34.00;17.20;;;-3.80;99.90;;;;;;5028792;28;20029;-78
2023/02/11 03:19:10;;;;;;;29.37;16.17;;;-3.80;99.90;;;;;;5027988;28;20086;-78
2023/02/11 03:21:38;;;;;;;29.67;15.70;;;-3.70;99.90;;;;;;5027226;28;20032;-78
2023/02/11 03:24:12;;;;;;;32.00;17.40;;;-3.60;99.90;;;;;;5055404;28;20029;-78
2023/02/11 03:26:48;;;;;;;29.75;15.90;;;-3.60;99.90;;;;;;5029054;28;20110;-78
2023/02/11 03:29:35;;;;;;;29.27;15.90;;;-3.60;99.90;;;;;;5026874;28;20034;-78
2023/02/11 03:32:15;;;;;;;27.67;15.50;;;-3.60;99.90;;;;;;5026078;28;20104;-78
2023/02/11 03:34:45;;;;;;;29.73;14.93;;;-3.60;99.90;;;;;;5026417;28;20033;-78
2023/02/11 03:37:22;;;;;;;27.17;15.57;;;-3.50;99.90;;;;;;5025881;28;20022;-78
2023/02/11 03:39:53;;;;;;;29.63;16.50;;;-3.50;99.90;;;;;;5026349;28;20163;-78
2023/02/11 03:42:20;;;;;;;30.17;15.93;;;-3.50;99.90;;;;;;5025947;28;20405;-78
2023/02/11 03:44:52;;;;;;;28.93;15.47;;;-3.40;99.90;;;;;;5026270;28;20018;-78
2023/02/11 03:47:21;;;;;;;28.87;15.57;;;-3.40;99.90;;;;;;5026089;28;20017;-78
2023/02/11 03:49:50;;;;;;;31.80;16.63;;;-3.40;99.90;;;;;;5024348;28;20814;-78
2023/02/11 03:52:18;;;;;;;28.27;15.73;;;-3.40;99.90;;;;;;5026188;28;20112;-78
2023/02/11 03:54:46;;;;;;;30.33;16.93;;;-3.40;99.90;;;;;;5024756;28;20704;-78
2023/02/11 03:57:12;;;;;;;35.07;17.13;;;-3.50;99.90;;;;;;5026216;28;20032;-78
2023/02/11 03:59:54;;;;;;;28.77;16.60;;;-3.50;99.90;;;;;;5025880;28;20029;-78
2023/02/11 04:02:23;;;;;;;34.87;16.53;;;-3.60;99.90;;;;;;5024009;28;20029;-78
2023/02/11 04:04:48;;;;;;;31.70;16.10;;;-3.60;99.90;;;;;;5025803;28;20108;-78
2023/02/11 04:07:14;;;;;;;28.23;16.43;;;-3.60;99.90;;;;;;5025987;28;20040;-78
2023/02/11 04:09:40;;;;;;;30.90;16.53;;;-3.70;99.90;;;;;;5025697;28;20092;-78
2023/02/11 04:12:05;;;;;;;30.77;15.83;;;-3.70;99.90;;;;;;5024293;28;20658;-78
2023/02/11 04:14:31;;;;;;;29.07;15.30;;;-3.70;99.90;;;;;;5025419;28;20033;-78
2023/02/11 04:16:56;;;;;;;28.83;15.07;;;-3.70;99.90;;;;;;5025419;28;20037;-78
2023/02/11 04:19:22;;;;;;;29.37;16.23;;;-3.70;99.90;;;;;;5025434;28;20119;-78
2023/02/11 04:21:47;;;;;;;29.00;15.93;;;-3.80;99.90;;;;;;5025503;28;20421;-78
2023/02/11 04:24:13;;;;;;;31.67;16.57;;;-3.80;99.90;;;;;;5025436;28;20955;-78
2023/02/11 04:26:38;;;;;;;28.57;15.77;;;-3.80;99.90;;;;;;5024559;28;20072;-78
2023/02/11 04:29:04;;;;;;;32.43;16.90;;;-3.80;99.90;;;;;;5025962;28;20079;-78
2023/02/11 04:31:30;;;;;;;27.47;15.27;;;-3.80;99.90;;;;;;5025180;28;20099;-78
2023/02/11 04:33:55;;;;;;;26.30;14.97;;;-3.80;99.90;;;;;;5025330;28;20041;-78
2023/02/11 04:36:21;;;;;;;30.10;16.17;;;-3.80;99.90;;;;;;5025061;28;20164;-78
2023/02/11 04:38:46;;;;;;;27.17;14.93;;;-3.90;99.90;;;;;;5023426;28;20429;-78
2023/02/11 04:41:12;;;;;;;27.40;15.53;;;-3.90;99.90;;;;;;5023841;28;20359;-78
2023/02/11 04:43:38;;;;;;;30.93;15.83;;;-3.90;99.90;;;;;;5024917;28;20105;-78
2023/02/11 04:46:03;;;;;;;33.83;15.73;;;-3.80;99.90;;;;;;5024509;28;21460;-78
2023/02/11 04:48:29;;;;;;;32.07;17.37;;;-3.80;99.90;;;;;;5026040;28;20093;-78
2023/02/11 04:50:55;;;;;;;29.53;16.23;;;-3.90;99.90;;;;;;5028510;28;20437;-77
2023/02/11 04:53:20;;;;;;;33.40;16.90;;;-3.90;99.90;;;;;;5030343;28;20026;-78
2023/02/11 04:55:49;;;;;;;30.23;15.67;;;-3.90;99.90;;;;;;5030001;28;20029;-78
2023/02/11 04:58:15;;;;;;;36.27;18.17;;;-3.90;99.90;;;;;;5028869;28;20029;-78
2023/02/11 05:00:41;;;;;;;36.23;19.67;;;-3.90;99.90;;;;;;5027193;28;20044;-78
2023/02/11 05:03:06;;;;;;;41.97;19.77;;;-3.90;99.90;;;;;;5025614;28;20029;-78
2023/02/11 05:05:32;;;;;;;38.50;21.23;;;-3.90;99.90;;;;;;5024943;28;20052;-78
2023/02/11 05:07:57;;;;;;;41.73;21.93;;;-3.90;99.90;;;;;;5025430;28;20104;-78
2023/02/11 05:10:23;;;;;;;41.77;22.50;;;-3.90;99.90;;;;;;5027206;28;20061;-78
2023/02/11 05:12:48;;;;;;;39.20;21.00;;;-3.90;99.90;;;;;;5027136;28;20139;-78
2023/02/11 05:15:14;;;;;;;36.40;19.67;;;-3.90;99.90;;;;;;5028011;28;20061;-78
2023/02/11 05:17:40;;;;;;;32.93;18.40;;;-3.80;99.90;;;;;;5029178;28;20029;-78
2023/02/11 05:20:06;;;;;;;32.37;17.80;;;-3.80;99.90;;;;;;5029378;28;20052;-78
2023/02/11 05:22:31;;;;;;;31.97;16.40;;;-3.80;99.90;;;;;;5028119;28;20036;-78
2023/02/11 05:24:57;;;;;;;30.63;15.17;;;-3.70;99.90;;;;;;5023442;28;20034;-78
2023/02/11 05:27:22;;;;;;;27.70;15.27;;;-3.70;99.90;;;;;;5024308;28;20029;-78
2023/02/11 05:29:48;;;;;;;24.67;14.37;;;-3.60;99.90;;;;;;5024203;28;20086;-78
2023/02/11 05:32:13;;;;;;;31.20;15.07;;;-3.60;99.90;;;;;;5024101;28;20037;-78
2023/02/11 05:34:39;;;;;;;26.07;14.80;;;-3.60;99.90;;;;;;5023968;28;20029;-78
2023/02/11 05:37:05;;;;;;;26.10;14.23;;;-3.50;99.90;;;;;;5023441;28;20033;-78
2023/02/11 05:39:30;;;;;;;28.10;13.80;;;-3.50;99.90;;;;;;5023572;28;20032;-78
2023/02/11 05:41:56;;;;;;;22.67;13.43;;;-3.40;99.90;;;;;;5022329;28;20116;-77
2023/02/11 05:44:21;;;;;;;26.37;15.13;;;-3.40;99.90;;;;;;5022680;28;20037;-78
2023/02/11 05:46:48;;;;;;;24.80;13.20;;;-3.30;99.90;;;;;;5024251;28;20061;-78
2023/02/11 05:49:15;;;;;;;24.43;12.60;;;-3.30;99.90;;;;;;5023650;28;20124;-78
2023/02/11 05:51:40;;;;;;;22.13;12.40;;;-3.20;99.90;;;;;;5023407;28;21493;-77
2023/02/11 05:54:06;;;;;;;17.10;10.27;;;-3.20;99.90;;;;;;5023975;28;20044;-78
2023/02/11 05:56:31;;;;;;;18.73;9.63;;;-3.10;99.90;;;;;;5023759;28;20041;-78
2023/02/11 05:58:58;;;;;;;18.50;9.93;;;-3.00;99.90;;;;;;5023278;28;20067;-78
2023/02/11 06:01:24;;;;;;;18.23;9.50;;;-2.90;99.90;;;;;;5023040;28;20389;-78
2023/02/11 06:03:50;;;;;;;18.20;9.20;;;-2.80;99.90;;;;;;5023108;28;20045;-78
2023/02/11 06:06:16;;;;;;;17.53;9.27;;;-2.70;99.90;;;;;;5023814;28;20137;-78
2023/02/11 06:08:42;;;;;;;15.63;9.07;;;-2.70;99.90;;;;;;5023595;28;20038;-78
2023/02/11 06:11:08;;;;;;;15.07;8.70;;;-2.50;99.90;;;;;;5023373;28;20136;-78
2023/02/11 06:13:35;;;;;;;18.80;9.17;;;-2.50;99.90;;;;;;5021725;28;20026;-78
2023/02/11 06:16:02;;;;;;;18.27;8.47;;;-2.40;99.90;;;;;;5023534;28;20045;-78
2023/02/11 06:18:28;;;;;;;18.73;9.10;;;-2.30;99.90;;;;;;5023219;28;20030;-78
2023/02/11 06:20:54;;;;;;;16.57;8.80;;;-2.20;99.90;;;;;;5022672;28;20022;-78
2023/02/11 06:23:20;;;;;;;18.63;10.47;;;-2.20;99.90;;;;;;5048438;28;20029;-78
2023/02/11 06:25:46;;;;;;;18.60;10.73;;;-2.10;99.90;;;;;;5023340;28;20037;-78
2023/02/11 06:28:11;;;;;;;20.20;10.53;;;-2.10;99.90;;;;;;5023382;28;20103;-78
2023/02/11 06:30:37;;;;;;;16.30;9.33;;;-2.00;99.90;;;;;;5022996;28;20045;-78
2023/02/11 06:33:03;;;;;;;20.43;10.47;;;-2.00;99.90;;;;;;5023095;28;20029;-78
2023/02/11 06:35:29;;;;;;;20.17;10.10;;;-2.00;99.90;;;;;;5022188;28;20048;-78
2023/02/11 06:37:54;;;;;;;20.20;10.73;;;-2.00;99.90;;;;;;5022964;28;20108;-78
2023/02/11 06:40:20;;;;;;;19.80;10.80;;;-1.90;99.90;;;;;;5022770;28;20107;-78
2023/02/11 06:42:55;;;;;;;16.77;10.33;;;-1.90;99.90;;;;;;5023835;28;20053;-81
2023/02/11 06:45:20;;;;;;;22.02;10.77;;;-1.90;99.90;;;;;;5033325;28;20039;-76
2023/02/11 06:47:46;;;;;;;18.77;10.43;;;-1.90;99.90;;;;;;5037410;28;20029;-76
2023/02/11 06:50:13;;;;;;;19.37;9.97;;;-1.90;99.90;;;;;;5036173;28;20139;-76
2023/02/11 06:52:39;;;;;;;16.13;9.23;;;-1.90;99.90;;;;;;5036331;28;20148;-75
2023/02/11 06:55:04;;;;;;;17.80;9.70;;;-1.90;99.90;;;;;;5036772;28;20167;-75
2023/02/11 06:57:31;;;;;;;18.50;9.93;;;-1.80;99.90;;;;;;5036155;28;20315;-75
2023/02/11 06:59:56;;;;;;;16.70;9.83;;;-1.80;99.90;;;;;;5040756;28;20096;-76
2023/02/11 07:02:22;;;;;;;18.87;9.80;;;-1.70;99.90;;;;;;5038089;28;20481;-76
2023/02/11 07:04:48;;;;;;;16.87;9.83;;;-1.70;99.90;;;;;;5039856;28;20465;-76
2023/02/11 07:07:13;;;;;;;16.53;9.60;;;-1.70;99.90;;;;;;5039084;28;20025;-76
2023/02/11 07:09:39;;;;;;;16.90;9.70;;;-1.60;99.90;;;;;;5042246;28;20057;-76
2023/02/11 07:12:04;;;;;;;14.07;9.23;;;-1.60;99.90;;;;;;5041700;28;20033;-75
2023/02/11 07:14:30;;;;;;;17.67;9.30;;;-1.60;99.90;;;;;;5038930;28;20105;-76
2023/02/11 07:16:58;;;;;;;18.00;9.57;;;-1.50;99.90;;;;;;5041218;28;20100;-76
2023/02/11 07:19:23;;;;;;;16.40;10.07;;;-1.50;99.90;;;;;;5038956;28;20021;-75
2023/02/11 07:21:49;;;;;;;23.07;9.83;;;-1.50;99.90;;;;;;5039001;28;20151;-74
2023/02/11 07:24:15;;;;;;;17.97;10.30;;;-1.40;99.90;;;;;;5037332;28;20034;-74
2023/02/11 07:26:40;;;;;;;19.07;10.33;;;-1.40;99.90;;;;;;5035167;28;21577;-75
2023/02/11 07:29:06;;;;;;;20.57;9.90;;;-1.40;99.90;;;;;;5036822;28;20084;-75
2023/02/11 07:31:32;;;;;;;16.13;9.97;;;-1.40;99.90;;;;;;5036461;28;20037;-75
2023/02/11 07:33:59;;;;;;;16.43;10.30;;;-1.30;99.90;;;;;;5035707;28;20039;-75
2023/02/11 07:36:28;;;;;;;17.23;9.57;;;-1.30;99.90;;;;;;5032919;28;20022;-75
2023/02/11 07:38:54;;;;;;;18.33;9.97;;;-1.30;99.90;;;;;;5033854;28;20453;-75
2023/02/11 07:41:22;;;;;;;16.60;10.03;;;-1.20;99.90;;;;;;5034338;28;20075;-75
2023/02/11 07:43:48;;;;;;;16.07;9.20;;;-1.20;99.90;;;;;;5034190;28;20564;-75
2023/02/11 07:46:17;;;;;;;16.50;9.10;;;-1.10;99.90;;;;;;5034967;28;20375;-75
2023/02/11 07:48:42;;;;;;;14.13;8.60;;;-1.00;99.90;;;;;;5034334;28;20057;-75
2023/02/11 07:51:11;;;;;;;14.57;8.80;;;-1.00;99.90;;;;;;5037488;28;20033;-75
2023/02/11 07:53:37;;;;;;;16.60;8.30;;;-1.00;99.90;;;;;;5034637;28;20116;-75
2023/02/11 07:56:04;;;;;;;15.13;8.40;;;-0.90;99.90;;;;;;5036848;28;21437;-75
2023/02/11 07:58:30;;;;;;;16.83;8.97;;;-0.80;99.90;;;;;;5032869;28;20123;-75
2023/02/11 08:01:04;;;;;;;19.53;9.03;;;-0.70;99.90;;;;;;5036023;28;20017;-75
2023/02/11 08:03:31;;;;;;;20.57;9.77;;;-0.60;99.90;;;;;;5034220;28;20052;-75
2023/02/11 08:05:56;;;;;;;13.27;7.50;;;-0.50;99.90;;;;;;5021505;28;20036;-75
2023/02/11 08:08:24;;;;;;;14.43;8.47;;;-0.40;99.90;;;;;;5024526;28;20033;-76
2023/02/11 08:10:49;;;;;;;16.60;7.97;;;-0.30;99.90;;;;;;5029798;28;20053;-76
2023/02/11 08:13:15;;;;;;;13.90;8.27;;;-0.20;99.90;;;;;;5031024;28;20067;-76
2023/02/11 08:15:40;;;;;;;12.27;7.50;;;-0.10;99.90;;;;;;5033639;28;20778;-75
2023/02/11 08:18:07;;;;;;;14.83;8.07;;;0.10;99.90;;;;;;5029789;28;20036;-75
2023/02/11 08:20:33;;;;;;;17.33;9.00;;;0.20;99.90;;;;;;5031063;28;20408;-76
2023/02/11 08:23:00;;;;;;;14.23;8.37;;;0.30;99.90;;;;;;5030691;28;20033;-75
2023/02/11 08:25:25;;;;;;;14.30;8.27;;;0.40;99.90;;;;;;5032072;28;20406;-76
2023/02/11 08:27:51;;;;;;;13.73;8.80;;;0.50;99.90;;;;;;5026819;28;20033;-76
2023/02/11 08:30:16;;;;;;;16.87;9.60;;;0.50;99.90;;;;;;5030084;28;20116;-75
2023/02/11 08:32:42;;;;;;;17.43;9.47;;;0.60;99.90;;;;;;5030693;28;20033;-76
2023/02/11 08:35:10;;;;;;;14.57;9.30;;;0.70;99.90;;;;;;5029907;28;20057;-76
2023/02/11 08:37:36;;;;;;;17.27;9.63;;;0.70;99.90;;;;;;5028549;28;20032;-75
2023/02/11 08:40:02;;;;;;;16.27;8.87;;;0.80;99.90;;;;;;5030820;28;20739;-75
2023/02/11 08:42:28;;;;;;;14.93;9.10;;;0.70;99.90;;;;;;5029505;28;20025;-76
2023/02/11 08:44:53;;;;;;;16.17;8.80;;;0.70;99.90;;;;;;5028220;28;20030;-75
2023/02/11 08:47:19;;;;;;;13.00;8.23;;;0.70;99.90;;;;;;5027531;28;20030;-75
2023/02/11 08:49:44;;;;;;;16.87;9.33;;;0.80;99.90;;;;;;5029190;28;20025;-78
2023/02/11 08:52:10;;;;;;;13.07;8.50;;;0.80;99.90;;;;;;5026759;28;20036;-76
2023/02/11 08:54:36;;;;;;;17.57;8.87;;;0.90;99.90;;;;;;5030275;28;20026;-75
2023/02/11 08:57:02;;;;;;;17.63;9.10;;;1.10;99.90;;;;;;5027008;28;20033;-76
2023/02/11 08:59:27;;;;;;;15.37;8.90;;;1.20;99.90;;;;;;5028496;28;20021;-76
2023/02/11 09:01:53;;;;;;;18.50;8.37;;;1.30;99.90;;;;;;5028947;28;20111;-76
2023/02/11 09:04:19;;;;;;;18.03;9.00;;;1.50;99.90;;;;;;5032529;28;20051;-75
2023/02/11 09:06:45;;;;;;;18.77;9.77;;;1.50;99.90;;;;;;5038717;28;20070;-75
2023/02/11 09:09:13;;;;;;;18.37;9.40;;;1.60;99.90;;;;;;5035108;28;20156;-75
2023/02/11 09:11:41;;;;;;;18.90;10.27;;;1.70;99.90;;;;;;5037376;28;20033;-76
2023/02/11 09:14:20;;;;;;;21.10;10.77;;;1.80;99.90;;;;;;5036817;28;20233;-76
2023/02/11 09:16:45;;;;;;;20.80;9.77;;;1.90;99.90;;;;;;5035707;28;20028;-76
2023/02/11 09:19:11;;;;;;;19.53;10.13;;;2.00;99.90;;;;;;5036051;28;20104;-76
2023/02/11 09:21:39;;;;;;;20.00;10.47;;;2.00;99.90;;;;;;5032323;28;20048;-76
2023/02/11 09:24:07;;;;;;;19.73;10.33;;;2.10;99.90;;;;;;5029171;28;20027;-75
2023/02/11 09:26:34;;;;;;;20.53;10.67;;;2.10;99.90;;;;;;5029401;28;20033;-75
2023/02/11 09:29:00;;;;;;;20.43;10.27;;;2.20;99.90;;;;;;5029064;28;20029;-76
2023/02/11 09:31:31;;;;;;;23.63;11.27;;;2.20;99.90;;;;;;5029461;28;20060;-75
2023/02/11 09:33:59;;;;;;;17.00;10.47;;;2.30;99.90;;;;;;5028533;28;20036;-76
2023/02/11 09:36:27;;;;;;;17.43;11.40;;;2.20;99.90;;;;;;5028315;28;20057;-76
2023/02/11 09:38:54;;;;;;;18.13;10.73;;;2.30;99.90;;;;;;5029737;28;20021;-76
2023/02/11 09:41:23;;;;;;;20.47;10.50;;;2.30;99.90;;;;;;5027233;28;20029;-76
2023/02/11 09:44:01;;;;;;;18.73;11.30;;;2.40;99.90;;;;;;5028517;28;20029;-74
2023/02/11 09:46:32;;;;;;;24.60;11.60;;;2.60;99.90;;;;;;5025949;28;20489;-74
2023/02/11 09:48:58;;;;;;;20.53;11.67;;;2.70;99.90;;;;;;5028346;28;20029;-74
2023/02/11 09:51:56;;;;;;;20.83;11.90;;;2.90;99.90;;;;;;5027512;28;20037;-77
2023/02/11 09:54:54;;;;;;;19.00;12.10;;;3.10;99.90;;;;;;5028190;28;20032;-75
2023/02/11 09:57:20;;;;;;;22.97;11.93;;;3.20;99.90;;;;;;5028477;28;20052;-75
2023/02/11 09:59:48;;;;;;;20.13;12.30;;;3.40;99.90;;;;;;5026467;28;20025;-75
2023/02/11 10:02:25;;;;;;;22.87;12.73;;;3.40;99.90;;;;;;5027379;28;20053;-74
2023/02/11 10:05:28;;;;;;;25.33;14.30;;;3.50;99.90;;;;;;5028263;28;20022;-75
2023/02/11 10:08:08;;;;;;;23.70;13.43;;;3.60;99.90;;;;;;5026042;28;20445;-75
2023/02/11 10:10:50;;;;;;;23.50;13.33;;;3.70;99.90;;;;;;5026768;28;20041;-74
2023/02/11 10:13:29;;;;;;;22.63;13.83;;;3.80;99.90;;;;;;5028147;28;20048;-74
2023/02/11 10:16:15;;;;;;;26.97;14.83;;;3.90;99.90;;;;;;5027824;28;20044;-75
2023/02/11 10:19:10;;;;;;;25.67;13.50;;;3.90;99.90;;;;;;5027306;28;20026;-75
2023/02/11 10:21:49;;;;;;;23.57;13.77;;;4.00;99.90;;;;;;5027717;28;20037;-74
2023/02/11 10:24:16;;;;;;;23.00;13.87;;;4.20;99.90;;;;;;5027107;28;20107;-75
2023/02/11 10:26:43;;;;;;;22.07;13.07;;;4.30;99.90;;;;;;5026688;28;20029;-75
2023/02/11 10:29:29;;;;;;;23.20;12.70;;;4.40;99.90;;;;;;5027772;28;20056;-75
2023/02/11 10:31:56;;;;;;;22.13;12.87;;;4.70;99.90;;;;;;5027735;28;20840;-75
2023/02/11 10:34:22;;;;;;;20.70;12.00;;;4.70;99.90;;;;;;5027014;28;20467;-75
2023/02/11 10:36:47;;;;;;;23.63;13.30;;;4.80;99.90;;;;;;5026263;28;20045;-75
2023/02/11 10:39:16;;;;;;;20.83;12.63;;;4.70;99.90;;;;;;5027996;28;20030;-75
2023/02/11 10:42:00;;;;;;;24.77;13.40;;;4.70;99.90;;;;;;5031320;28;20057;-75
2023/02/11 10:45:01;;;;;;;20.70;12.97;;;4.70;99.90;;;;;;5031010;28;20802;-75
2023/02/11 10:47:32;;;;;;;22.47;13.23;;;4.70;99.90;;;;;;5029172;28;20034;-76
2023/02/11 10:50:02;;;;;;;24.73;13.77;;;4.80;99.90;;;;;;5030317;28;20026;-75
2023/02/11 10:52:35;;;;;;;28.27;14.87;;;4.80;99.90;;;;;;5030717;28;20497;-75
2023/02/11 10:55:15;;;;;;;25.73;13.83;;;4.80;99.90;;;;;;5028571;28;20777;-75
2023/02/11 10:57:49;;;;;;;26.87;13.87;;;4.90;99.90;;;;;;5030915;28;20067;-75
2023/02/11 11:00:30;;;;;;;34.27;14.13;;;4.90;99.90;;;;;;5030453;28;20426;-75
2023/02/11 11:02:58;;;;;;;25.40;14.30;;;4.90;99.90;;;;;;5028075;28;20132;-75
2023/02/11 11:05:53;;;;;;;26.27;15.33;;;5.00;99.90;;;;;;5053354;28;20029;-76
2023/02/11 11:08:19;;;;;;;25.77;13.60;;;5.10;99.90;;;;;;5027604;28;20576;-75
2023/02/11 11:11:06;;;;;;;23.70;14.63;;;5.10;99.90;;;;;;5028409;28;20049;-76
2023/02/11 11:13:37;;;;;;;22.93;14.10;;;5.20;99.90;;;;;;5030638;28;20493;-75
2023/02/11 11:16:08;;;;;;;24.33;13.33;;;5.30;99.90;;;;;;5028337;28;20033;-75
2023/02/11 11:18:34;;;;;;;33.73;14.67;;;5.40;99.90;;;;;;5029548;28;20032;-75
2023/02/11 11:21:21;;;;;;;24.10;14.50;;;5.40;99.90;;;;;;5029134;28;20029;-75
2023/02/11 11:23:58;;;;;;;28.93;14.23;;;5.40;99.90;;;;;;5030035;28;20048;-75
2023/02/11 11:26:27;;;;;;;23.00;13.80;;;5.40;99.90;;;;;;5029655;28;20057;-75
2023/02/11 11:29:11;;;;;;;27.37;14.33;;;5.40;99.90;;;;;;5029404;28;20022;-75
2023/02/11 11:31:50;;;;;;;22.50;13.50;;;5.40;99.90;;;;;;5028337;28;20029;-75
2023/02/11 11:34:30;;;;;;;22.53;12.77;;;5.40;99.90;;;;;;5030293;28;20060;-75
2023/02/11 11:36:58;;;;;;;24.23;13.43;;;5.40;99.90;;;;;;5030197;28;20037;-76
2023/02/11 11:39:28;;;;;;;23.90;12.30;;;5.50;99.90;;;;;;5030117;28;20137;-75
2023/02/11 11:41:57;;;;;;;23.30;13.53;;;5.50;99.90;;;;;;5030626;28;20078;-76
2023/02/11 11:44:34;;;;;;;26.03;13.70;;;5.50;99.90;;;;;;5030004;28;20116;-75
2023/02/11 11:47:35;;;;;;;20.40;12.47;;;5.60;99.90;;;;;;5028403;28;20406;-75
2023/02/11 11:50:38;;;;;;;22.10;11.87;;;5.80;99.90;;;;;;5029214;28;20051;-76
2023/02/11 11:53:06;;;;;;;21.63;12.50;;;6.00;99.90;;;;;;5032471;28;20112;-76
2023/02/11 11:55:44;;;;;;;21.47;12.70;;;6.00;99.90;;;;;;5030764;28;20021;-76
2023/02/11 11:58:14;;;;;;;25.40;13.20;;;6.10;99.90;;;;;;5027425;28;20065;-75
2023/02/11 12:01:19;;;;;;;23.03;13.63;;;6.20;99.90;;;;;;5030150;28;20128;-76
2023/02/11 12:04:20;;;;;;;18.40;11.87;;;6.20;99.90;;;;;;5014295;28;20040;-75
2023/02/11 12:07:05;;;;;;;21.00;12.10;;;6.20;99.90;;;;;;5011914;28;20059;-76
2023/02/11 12:09:47;;;;;;;20.52;12.23;;;6.20;99.90;;;;;;5029522;28;20453;-75
2023/02/11 12:12:44;;;;;;;18.97;11.67;;;6.20;99.90;;;;;;5029088;28;20548;-75
2023/02/11 12:15:21;;;;;;;21.10;11.83;;;6.20;99.90;;;;;;5030112;28;20458;-75
2023/02/11 12:17:55;;;;;;;22.10;11.80;;;6.20;99.90;;;;;;5028938;28;20027;-75
2023/02/11 12:20:37;;;;;;;23.23;13.13;;;6.30;99.90;;;;;;5030155;28;20066;-76
2023/02/11 12:23:22;;;;;;;22.77;12.30;;;6.40;99.90;;;;;;5028947;28;20435;-76
2023/02/11 12:25:56;;;;;;;20.30;11.50;;;6.40;99.90;;;;;;5029911;28;20018;-75
2023/02/11 12:28:41;;;;;;;18.90;11.67;;;6.50;99.90;;;;;;5029574;28;20160;-75
2023/02/11 12:31:15;;;;;;;19.33;11.07;;;6.50;99.90;;;;;;5028991;28;20160;-75
2023/02/11 12:34:13;;;;;;;25.23;11.82;;;6.60;99.90;;;;;;5028248;28;20474;-75
2023/02/11 12:36:53;;;;;;;23.90;12.33;;;6.70;99.90;;;;;;5027554;28;20038;-76
2023/02/11 12:39:39;;;;;;;19.73;11.57;;;6.80;99.90;;;;;;5028596;28;20498;-75
2023/02/11 12:45:10;;;;;;;18.60;11.53;;;6.80;99.90;;;;;;5029186;28;20007;-75
2023/02/11 12:47:59;;;;;;;22.53;11.43;;;6.80;99.90;;;;;;5026937;28;20525;-75
2023/02/11 12:50:41;;;;;;;21.80;11.07;;;6.80;99.90;;;;;;5028761;28;20034;-76
2023/02/11 12:53:15;;;;;;;23.00;10.43;;;6.80;99.90;;;;;;5029110;28;20056;-76
2023/02/11 12:55:45;;;;;;;19.93;11.57;;;6.70;99.90;;;;;;5030021;28;20076;-76
2023/02/11 12:58:17;;;;;;;22.53;11.60;;;6.60;99.90;;;;;;5036868;28;20036;-76
2023/02/11 13:00:54;;;;;;;20.77;10.77;;;6.60;99.90;;;;;;5034540;28;20067;-75